Nearby METAR Reports

 

YBUD - Bundaberg, Australia
Distance from station: SSW 6km
Updated: 03/06/2020 13:00
Clear
Clear
 Wind from SW
Wind: SW 17 km/h
Temperature: 21°C
Dew Point: 1°C
Humidity: 27%
Barometer: 1019 hPa
Clouds: Clear
Visibility: 10 km
2020/06/03 03:00 YBUD 030300Z AUTO 22009KT 9999 // NCD 21/01 Q1019
YGLA - Gladstone, Australia
Distance from station: NW 159km
Updated: 03/06/2020 13:00
Clear
Clear
 Wind from SSW
Wind: SSW 11 km/h
Temperature: 23°C
Dew Point: 0°C
Humidity: 22%
Barometer: 1020 hPa
Clouds: Clear
Visibility: 10 km
2020/06/03 03:00 YGLA 030300Z AUTO 20006KT 9999 // NCD 23/00 Q1020 RF00.0/000.0
YBRK - Rockhampton Airp, Australia
Distance from station: NW 252km
Updated: 03/06/2020 13:00
Clear
Clear
 Wind from SW
Wind: SW 15 km/h
Temperature: 22°C
Dew Point: -1°C
Humidity: 22%
Barometer: 1020 hPa
Summary: Clear
Visibility: greater than 10 km
2020/06/03 03:00 YBRK 030300Z 22008KT CAVOK 22/M01 Q1020
 
YBBN - Brisbane Intl Ar, Australia
Distance from station: SSE 292km
Updated: 03/06/2020 13:00
Clear
Clear
 Wind from WSW
Wind: WSW 13 km/h
Temperature: 20°C
Dew Point: 2°C
Humidity: 30%
Barometer: 1020 hPa
Summary: Clear
Visibility: greater than 10 km
2020/06/03 03:00 YBBN 030300Z 25007KT 200V280 CAVOK 20/02 Q1020
YAMB - Amberley, Australia
Distance from station: S 312km
Updated: 03/06/2020 13:00
Clear
Clear
 Wind from W
Wind: W 9 km/h
Temperature: 22°C
Dew Point: 2°C
Humidity: 27%
Barometer: 1019 hPa
Summary: Clear
Visibility: greater than 10 km
2020/06/03 03:00 YAMB 030300Z 27005KT 210V330 CAVOK 22/02 Q1019
YBCG - Coolangatta Aws, Australia
Distance from station: SSE 386km
Updated: 03/06/2020 13:00
Clear
Clear
 Wind from E
Wind: E 13 km/h
Temperature: 20°C
Dew Point: 3°C
Humidity: 33%
Barometer: 1019 hPa
Clouds: Clear
2020/06/03 03:00 YBCG 030300Z AUTO 08007KT //// // NCD 20/03 Q1019